Time;durP1;ratioP1;P1;durP2;ratioP2;P2;SDS_P1;SDS_P2;PMS_P1;PMS_P2;Temp;Humidity;BMP_temperature;BMP_pressure;BME280_temperature;BME280_humidity;BME280_pressure;Samples;Min_cycle;Max_cycle;Signal;HPM_P1;HPM_P2
2023/07/25 00:00:09;;;;;;;;;2.60;1.00;;;;;15.80;77.81;98883.28;5032625;28;8824;-59
2023/07/25 00:02:37;;;;;;;;;1.00;1.00;;;;;15.81;77.87;98881.41;5034151;28;8868;-59
2023/07/25 00:05:05;;;;;;;;;1.00;0.00;;;;;15.81;78.54;98879.56;5036292;28;8928;-60
2023/07/25 00:07:33;;;;;;;;;1.00;1.00;;;;;15.80;78.08;98885.09;5032427;28;9580;-59
2023/07/25 00:10:01;;;;;;;;;1.00;0.60;;;;;15.81;77.73;98893.00;5035675;28;8824;-59
2023/07/25 00:12:29;;;;;;;;;3.20;3.00;;;;;15.82;78.07;98889.28;5026440;28;8815;-59
2023/07/25 00:14:56;;;;;;;;;0.60;0.60;;;;;15.81;77.96;98890.31;5035703;28;8839;-61
2023/07/25 00:17:24;;;;;;;;;0.20;0.20;;;;;15.82;78.13;98888.44;5035484;28;8823;-60
2023/07/25 00:19:51;;;;;;;;;3.00;1.00;;;;;15.82;78.12;98899.19;5035943;28;8828;-59
2023/07/25 00:22:19;;;;;;;;;0.00;0.00;;;;;15.81;77.67;98897.50;5018714;28;8850;-60
2023/07/25 00:24:47;;;;;;;;;1.00;1.00;;;;;15.80;78.17;98901.22;5016442;28;8825;-58
2023/07/25 00:27:14;;;;;;;;;1.00;1.00;;;;;15.81;77.50;98901.03;5017966;28;8839;-60
2023/07/25 00:29:42;;;;;;;;;1.80;1.80;;;;;15.81;77.33;98898.34;5022813;28;8818;-60
2023/07/25 00:32:10;;;;;;;;;1.00;0.60;;;;;15.81;78.35;98903.72;5034553;28;8852;-61
2023/07/25 00:34:37;;;;;;;;;2.20;1.00;;;;;15.81;78.02;98909.09;5015790;28;8850;-60
2023/07/25 00:37:05;;;;;;;;;2.20;2.20;;;;;15.80;77.52;98904.75;5017004;28;8829;-58
2023/07/25 00:39:33;;;;;;;;;1.80;1.80;;;;;15.82;78.11;98909.91;5029084;28;8832;-59
2023/07/25 00:42:00;;;;;;;;;1.00;1.00;;;;;15.82;77.96;98904.53;5035187;28;8812;-59
2023/07/25 00:44:28;;;;;;;;;3.00;3.00;;;;;15.83;77.53;98906.22;5015518;28;8957;-59
2023/07/25 00:46:56;;;;;;;;;3.00;3.00;;;;;15.83;78.27;98914.25;5015706;28;8830;-59
2023/07/25 00:49:24;;;;;;;;;3.00;3.00;;;;;15.85;77.33;98923.00;5028362;28;8829;-59
2023/07/25 00:51:51;;;;;;;;;3.00;3.00;;;;;15.84;77.41;98914.09;5035358;28;8816;-59
2023/07/25 00:57:30;;;;;;;;;3.00;3.00;;;;;15.86;77.51;98908.56;5015188;28;8811;-59
2023/07/25 00:59:58;;;;;;;;;1.40;1.40;;;;;15.85;77.64;98917.63;5024013;28;9574;-59
2023/07/25 01:02:25;;;;;;;;;3.20;3.20;;;;;15.82;77.36;98921.50;5015543;28;8834;-61
2023/07/25 01:04:53;;;;;;;;;2.60;2.60;;;;;15.81;77.70;98919.84;5015643;28;8846;-61
2023/07/25 01:07:21;;;;;;;;;3.20;2.20;;;;;15.78;77.37;98919.34;5015357;28;8842;-59
2023/07/25 01:09:48;;;;;;;;;3.00;3.00;;;;;15.78;77.94;98914.00;5017308;28;8818;-59
2023/07/25 01:12:16;;;;;;;;;2.60;1.40;;;;;15.76;77.49;98916.03;5031139;28;8820;-59
2023/07/25 01:14:43;;;;;;;;;2.60;2.60;;;;;15.73;77.96;98895.75;5022162;28;8806;-60
2023/07/25 01:17:11;;;;;;;;;1.40;1.40;;;;;15.72;77.87;98901.28;5034087;28;8812;-59
2023/07/25 01:19:39;;;;;;;;;3.00;1.50;;;;;15.70;78.02;98906.81;5034645;28;8820;-60
2023/07/25 01:22:07;;;;;;;;;4.00;3.00;;;;;15.69;77.58;98907.84;5034613;28;8864;-59
2023/07/25 01:24:34;;;;;;;;;2.20;2.20;;;;;15.65;77.97;98901.19;5034350;28;8820;-61
2023/07/25 01:27:02;;;;;;;;;2.20;2.20;;;;;15.67;78.07;98909.03;5034376;28;8828;-61
2023/07/25 01:29:29;;;;;;;;;2.20;2.20;;;;;15.67;77.71;98903.66;5034772;28;8844;-59
2023/07/25 01:31:58;;;;;;;;;2.20;2.20;;;;;15.67;77.57;98895.59;5034671;28;8840;-59
2023/07/25 01:34:25;;;;;;;;;3.00;2.60;;;;;15.67;77.49;98884.88;5034869;28;8824;-59
2023/07/25 01:36:53;;;;;;;;;3.00;1.00;;;;;15.67;77.83;98884.88;5034423;28;8986;-59
2023/07/25 01:39:20;;;;;;;;;2.60;2.20;;;;;15.65;77.25;98870.81;5034504;28;8843;-59
2023/07/25 01:41:48;;;;;;;;;4.00;4.00;;;;;15.65;77.88;98876.16;5034640;28;8832;-60
2023/07/25 01:44:16;;;;;;;;;3.20;2.60;;;;;15.64;78.42;98871.81;5034721;28;8809;-60
2023/07/25 01:46:43;;;;;;;;;1.80;1.80;;;;;15.63;77.99;98879.03;5034949;28;8832;-59
2023/07/25 01:49:11;;;;;;;;;0.40;0.00;;;;;15.62;77.59;98871.19;5034349;28;8824;-59
2023/07/25 01:51:39;;;;;;;;;2.20;1.40;;;;;15.60;77.53;98876.72;5034933;28;8831;-59
2023/07/25 01:54:07;;;;;;;;;2.20;1.00;;;;;15.59;77.72;98872.38;5034371;28;8832;-60
2023/07/25 01:56:34;;;;;;;;;3.00;3.00;;;;;15.60;77.72;98859.75;5034309;28;8874;-59
2023/07/25 01:59:02;;;;;;;;;3.20;3.00;;;;;15.59;78.13;98861.63;5032891;28;8844;-60
2023/07/25 02:01:29;;;;;;;;;3.00;1.40;;;;;15.59;77.74;98861.63;5031389;28;8836;-60
2023/07/25 02:03:58;;;;;;;;;1.40;1.40;;;;;15.59;77.65;98864.31;5013425;28;8838;-59
2023/07/25 02:06:25;;;;;;;;;4.00;4.00;;;;;15.59;77.64;98850.03;5030217;28;8852;-59
2023/07/25 02:08:53;;;;;;;;;3.00;3.00;;;;;15.57;77.82;98858.31;5033651;28;8885;-59
2023/07/25 02:11:20;;;;;;;;;4.00;3.40;;;;;15.56;77.43;98867.34;5029511;28;8859;-59
2023/07/25 02:13:48;;;;;;;;;1.00;1.00;;;;;15.56;77.96;98851.22;5032468;28;8828;-59
2023/07/25 02:16:16;;;;;;;;;3.40;3.40;;;;;15.56;77.95;98850.41;5018668;28;8841;-60
2023/07/25 02:18:43;;;;;;;;;3.00;3.00;;;;;15.56;77.83;98850.41;5014110;28;8830;-60
2023/07/25 02:21:11;;;;;;;;;4.20;3.20;;;;;15.55;77.86;98848.75;5017167;28;8938;-60
2023/07/25 02:23:39;;;;;;;;;2.20;2.20;;;;;15.56;77.50;98845.88;5014281;28;8945;-60
2023/07/25 02:26:06;;;;;;;;;3.00;3.00;;;;;15.56;77.68;98845.06;5027693;28;8820;-60
2023/07/25 02:28:34;;;;;;;;;3.00;1.40;;;;;15.56;77.08;98845.88;5034101;28;8854;-59
2023/07/25 02:31:02;;;;;;;;;3.00;3.00;;;;;15.56;77.61;98845.88;5021644;28;8837;-60
2023/07/25 02:33:29;;;;;;;;;3.00;1.00;;;;;15.55;77.97;98840.69;5015322;28;8856;-59
2023/07/25 02:35:57;;;;;;;;;2.40;2.40;;;;;15.56;77.78;98842.38;5013542;28;8818;-60
2023/07/25 02:38:25;;;;;;;;;3.20;3.20;;;;;15.55;77.79;98844.19;5014021;28;8830;-59
2023/07/25 02:40:52;;;;;;;;;1.40;1.40;;;;;15.56;78.11;98842.38;5013673;28;8861;-59
2023/07/25 02:43:22;;;;;;;;;3.00;3.00;;;;;15.57;77.69;98849.41;5014439;28;8822;-59
2023/07/25 02:45:50;;;;;;;;;1.00;1.00;;;;;15.57;77.80;98844.03;5012929;28;9626;-58
2023/07/25 02:48:17;;;;;;;;;5.60;4.60;;;;;15.58;77.86;98843.00;5013220;28;8858;-58
2023/07/25 02:50:45;;;;;;;;;4.00;3.80;;;;;15.57;77.82;98847.56;5014179;28;8811;-59
2023/07/25 02:53:12;;;;;;;;;2.60;2.60;;;;;15.57;77.57;98841.34;5032487;28;8855;-58
2023/07/25 02:55:40;;;;;;;;;1.00;1.00;;;;;15.56;77.60;98848.56;5028562;28;8812;-59
2023/07/25 02:58:08;;;;;;;;;2.20;2.20;;;;;15.57;78.05;98841.34;5032442;28;8843;-58
2023/07/25 03:00:37;;;;;;;;;3.20;3.20;;;;;15.56;77.69;98843.19;5032196;28;8816;-59
2023/07/25 03:03:05;;;;;;;;;1.40;1.40;;;;;15.56;77.55;98840.50;5033329;28;8832;-59
2023/07/25 03:05:32;;;;;;;;;4.40;3.00;;;;;15.57;77.74;98842.19;5029260;28;8930;-59
2023/07/25 03:08:00;;;;;;;;;1.40;1.40;;;;;15.56;77.62;98835.13;5014358;28;8844;-59
2023/07/25 03:10:28;;;;;;;;;3.20;3.20;;;;;15.57;77.89;98841.34;5012980;28;8846;-61
2023/07/25 03:12:55;;;;;;;;;4.00;3.40;;;;;15.58;77.97;98837.66;5013103;28;9500;-59
2023/07/25 03:15:23;;;;;;;;;2.60;2.60;;;;;15.58;78.14;98843.00;5013036;28;8844;-59
2023/07/25 03:17:50;;;;;;;;;4.50;4.50;;;;;15.59;77.97;98842.00;5013020;28;8818;-60
2023/07/25 03:20:18;;;;;;;;;3.00;3.00;;;;;15.58;77.29;98843.00;5020055;28;8935;-59
2023/07/25 03:22:46;;;;;;;;;6.20;4.00;;;;;15.59;77.95;98844.69;5033117;28;8950;-59
2023/07/25 03:25:14;;;;;;;;;4.40;3.60;;;;;15.59;77.92;98840.16;5032657;28;8832;-61
2023/07/25 03:27:41;;;;;;;;;3.00;3.00;;;;;15.59;77.59;98840.16;5032599;28;8840;-59
2023/07/25 03:30:09;;;;;;;;;5.60;4.40;;;;;15.59;77.82;98844.69;5032789;28;8816;-59
2023/07/25 03:32:37;;;;;;;;;2.20;2.20;;;;;15.57;77.47;98849.41;5032858;28;8846;-59
2023/07/25 03:35:04;;;;;;;;;3.60;3.60;;;;;15.54;78.07;98855.13;5032313;28;8847;-59
2023/07/25 03:37:32;;;;;;;;;3.20;2.20;;;;;15.52;77.33;98854.47;5035674;28;8844;-59
2023/07/25 03:39:59;;;;;;;;;3.20;3.20;;;;;15.49;77.97;98854.84;5039047;28;8832;-62
2023/07/25 03:42:27;;;;;;;;;4.00;3.00;;;;;15.45;77.81;98856.19;5039211;28;8827;-59
2023/07/25 03:44:55;;;;;;;;;5.60;3.80;;;;;15.44;78.39;98862.56;5039088;28;8821;-60
2023/07/25 03:47:23;;;;;;;;;6.20;5.20;;;;;15.39;78.08;98859.63;5039153;28;8844;-60
2023/07/25 03:49:51;;;;;;;;;3.60;3.60;;;;;15.34;78.16;98859.31;5038910;28;8825;-59
2023/07/25 03:52:19;;;;;;;;;6.20;5.20;;;;;15.28;78.60;98854.63;5039688;28;9505;-59
2023/07/25 03:54:47;;;;;;;;;6.00;6.00;;;;;15.22;78.22;98858.00;5039039;28;8824;-59
2023/07/25 03:57:14;;;;;;;;;3.40;3.40;;;;;15.16;78.34;98856.88;5038962;28;8834;-59
2023/07/25 03:59:45;;;;;;;;;3.00;3.00;;;;;15.12;78.72;98852.03;5039227;28;8866;-59
2023/07/25 04:02:12;;;;;;;;;4.50;4.50;;;;;15.05;78.51;98851.06;5039187;28;8828;-59
2023/07/25 04:04:40;;;;;;;;;4.00;3.00;;;;;15.01;78.72;98847.09;5039065;28;9529;-59
2023/07/25 04:07:08;;;;;;;;;4.00;4.00;;;;;14.96;79.63;98844.09;5033724;28;8866;-59
2023/07/25 04:09:35;;;;;;;;;4.00;4.00;;;;;14.92;79.20;98842.75;5031125;28;8855;-59
2023/07/25 04:12:03;;;;;;;;;4.00;3.00;;;;;14.90;78.97;98852.84;5038130;28;8836;-59
2023/07/25 04:14:31;;;;;;;;;5.00;3.50;;;;;14.88;79.20;98855.69;5038222;28;8978;-60
2023/07/25 04:16:58;;;;;;;;;3.00;3.00;;;;;14.86;78.91;98847.00;5038624;28;8856;-59
2023/07/25 04:19:26;;;;;;;;;3.00;3.00;;;;;14.85;79.07;98849.84;5026437;28;8834;-59
2023/07/25 04:21:53;;;;;;;;;2.50;2.50;;;;;14.82;79.24;98844.84;5029838;28;8836;-59
2023/07/25 04:24:21;;;;;;;;;3.00;2.00;;;;;14.80;79.62;98850.38;5037871;28;8808;-61
2023/07/25 04:26:50;;;;;;;;;5.00;3.75;;;;;14.81;79.04;98849.34;5038063;28;8842;-59
2023/07/25 04:29:18;;;;;;;;;4.00;4.00;;;;;14.82;79.09;98847.53;5036686;28;8840;-60
2023/07/25 04:31:45;;;;;;;;;8.00;7.00;;;;;14.84;79.16;98840.97;5037189;28;8852;-61
2023/07/25 04:34:13;;;;;;;;;4.00;3.25;;;;;14.86;79.34;98846.19;5037940;28;8828;-59
2023/07/25 04:36:40;;;;;;;;;3.00;3.00;;;;;14.86;79.38;98840.81;5038067;28;8844;-58
2023/07/25 04:39:08;;;;;;;;;3.25;3.00;;;;;14.86;78.57;98840.81;5027651;28;8837;-59
2023/07/25 04:41:36;;;;;;;;;4.50;3.25;;;;;14.85;78.74;98850.69;5018747;28;8860;-59
2023/07/25 04:44:07;;;;;;;;;4.00;4.00;;;;;14.84;79.11;98846.34;5030774;28;8832;-59
2023/07/25 04:46:34;;;;;;;;;3.75;3.75;;;;;14.83;79.05;98851.88;5038383;28;8816;-59
2023/07/25 04:49:03;;;;;;;;;1.00;1.00;;;;;14.84;78.66;98851.69;5032480;28;8820;-61
2023/07/25 04:51:30;;;;;;;;;6.00;5.50;;;;;14.85;79.46;98852.53;5035097;28;8896;-61
2023/07/25 04:53:58;;;;;;;;;1.00;0.00;;;;;14.87;78.78;98850.53;5027593;28;8827;-59
2023/07/25 04:56:26;;;;;;;;;4.00;4.00;;;;;14.88;78.76;98844.97;5015269;28;8853;-58
2023/07/25 04:58:53;;;;;;;;;4.00;3.50;;;;;14.90;79.38;98845.66;5021276;28;8834;-61
2023/07/25 05:01:21;;;;;;;;;3.00;3.00;;;;;14.96;78.80;98844.91;5034564;28;8816;-60
2023/07/25 05:03:49;;;;;;;;;4.00;3.25;;;;;15.03;78.28;98842.38;5030491;28;8842;-61
2023/07/25 05:06:16;;;;;;;;;4.00;4.00;;;;;15.12;78.07;98836.78;5015452;28;8886;-59
2023/07/25 05:08:44;;;;;;;;;7.00;4.67;;;;;15.21;78.32;98840.25;5016337;28;8825;-58
2023/07/25 05:11:12;;;;;;;;;3.00;3.00;;;;;15.28;77.98;98841.19;5025591;28;8832;-59
2023/07/25 05:13:39;;;;;;;;;4.25;4.00;;;;;15.33;77.07;98844.22;5034467;28;9517;-61
2023/07/25 05:16:07;;;;;;;;;6.00;6.00;;;;;15.37;77.70;98846.38;5034540;28;8820;-60
2023/07/25 05:18:35;;;;;;;;;6.75;5.50;;;;;15.43;77.41;98844.81;5022872;28;8837;-60
2023/07/25 05:21:03;;;;;;;;;5.20;3.80;;;;;15.48;77.74;98837.88;5033644;28;8827;-61
2023/07/25 05:23:30;;;;;;;;;4.25;3.25;;;;;15.57;77.49;98846.72;5034429;28;8854;-59
2023/07/25 05:25:58;;;;;;;;;4.00;4.00;;;;;15.64;77.41;98850.34;5034632;28;8824;-60
2023/07/25 05:28:26;;;;;;;;;4.40;4.00;;;;;15.68;77.20;98843.59;5033962;28;8858;-58
2023/07/25 05:30:53;;;;;;;;;6.00;5.50;;;;;15.71;76.83;98845.94;5034035;28;8824;-59
2023/07/25 05:33:21;;;;;;;;;3.60;3.60;;;;;15.70;76.69;98847.78;5034163;28;8836;-58
2023/07/25 05:35:49;;;;;;;;;4.40;4.00;;;;;15.70;77.01;98850.44;5033923;28;8828;-59
2023/07/25 05:38:16;;;;;;;;;6.00;4.80;;;;;15.70;76.58;98849.63;5034307;28;8840;-58
2023/07/25 05:40:44;;;;;;;;;3.20;3.20;;;;;15.69;76.85;98853.34;5034400;28;8855;-59
2023/07/25 05:43:15;;;;;;;;;3.20;3.00;;;;;15.75;77.29;98855.28;5034752;28;8839;-59
2023/07/25 05:45:42;;;;;;;;;3.00;3.00;;;;;15.83;76.94;98858.72;5034199;28;8832;-59
2023/07/25 05:48:10;;;;;;;;;4.00;4.00;;;;;15.89;76.66;98857.16;5033930;28;8860;-58
2023/07/25 05:50:38;;;;;;;;;7.00;6.00;;;;;15.94;76.64;98854.78;5033576;28;8828;-58
2023/07/25 05:53:06;;;;;;;;;4.00;3.60;;;;;16.01;76.45;98845.78;5034172;28;8916;-58
2023/07/25 05:55:33;;;;;;;;;4.00;4.00;;;;;16.09;76.23;98842.22;5033332;28;8850;-59
2023/07/25 05:58:01;;;;;;;;;7.00;6.60;;;;;16.16;75.65;98852.03;5014255;28;8838;-58
2023/07/25 06:00:29;;;;;;;;;6.00;4.00;;;;;16.24;76.12;98857.31;5031793;28;8824;-59
2023/07/25 06:02:56;;;;;;;;;4.00;4.00;;;;;16.33;75.83;98865.09;5031002;28;8850;-59
2023/07/25 06:05:24;;;;;;;;;6.40;6.40;;;;;16.40;75.47;98863.38;5032916;28;8839;-59
2023/07/25 06:07:52;;;;;;;;;8.20;8.20;;;;;16.54;74.97;98862.53;5033360;28;8840;-60
2023/07/25 06:10:20;;;;;;;;;5.20;4.00;;;;;16.62;74.87;98875.88;5031626;28;8832;-59
2023/07/25 06:12:47;;;;;;;;;6.00;6.00;;;;;16.63;74.76;98876.75;5027591;28;8818;-61
2023/07/25 06:15:15;;;;;;;;;6.20;4.40;;;;;16.66;74.56;98877.19;5013116;28;8947;-59
2023/07/25 06:17:43;;;;;;;;;6.60;6.60;;;;;16.65;75.23;98878.19;5013219;28;8964;-59
2023/07/25 06:20:11;;;;;;;;;6.00;5.20;;;;;16.71;74.94;98876.63;5015258;28;8814;-61
2023/07/25 06:22:39;;;;;;;;;9.20;7.00;;;;;16.80;74.73;98872.81;5014241;28;8822;-59
2023/07/25 06:25:07;;;;;;;;;6.40;6.00;;;;;16.86;74.66;98870.19;5014621;28;8853;-61
2023/07/25 06:27:35;;;;;;;;;6.40;6.40;;;;;17.03;74.41;98874.38;5014107;28;8836;-59
2023/07/25 06:30:02;;;;;;;;;6.40;6.40;;;;;17.17;74.29;98873.47;5028324;28;8812;-59
2023/07/25 06:32:30;;;;;;;;;4.00;4.00;;;;;17.32;73.73;98873.44;5032469;28;8932;-59
2023/07/25 06:34:58;;;;;;;;;6.40;6.20;;;;;17.35;73.74;98876.59;5025466;28;8818;-59
2023/07/25 06:37:26;;;;;;;;;4.80;3.60;;;;;17.35;73.66;98871.22;5033065;28;8855;-61
2023/07/25 06:39:54;;;;;;;;;3.20;3.00;;;;;17.35;73.81;98868.53;5030765;28;8916;-59
2023/07/25 06:42:22;;;;;;;;;6.80;4.40;;;;;17.42;73.42;98869.47;5032125;28;8974;-59
2023/07/25 06:44:49;;;;;;;;;6.00;4.00;;;;;17.55;73.25;98874.13;5021045;28;8882;-59
2023/07/25 06:47:17;;;;;;;;;7.80;5.20;;;;;17.64;73.09;98864.91;5012923;28;8838;-61
2023/07/25 06:49:45;;;;;;;;;6.00;5.60;;;;;17.74;72.54;98868.09;5012663;28;8833;-59
2023/07/25 06:52:12;;;;;;;;;3.20;3.00;;;;;17.82;72.64;98868.81;5013521;28;9519;-59
2023/07/25 06:54:40;;;;;;;;;4.00;3.00;;;;;17.84;72.86;98877.50;5023636;28;8830;-59
2023/07/25 06:57:09;;;;;;;;;3.00;3.00;;;;;17.83;72.63;98880.41;5012743;28;8818;-59
2023/07/25 06:59:36;;;;;;;;;3.40;3.40;;;;;17.79;72.88;98885.38;5012323;28;8826;-59
2023/07/25 07:02:04;;;;;;;;;3.80;3.80;;;;;17.78;73.03;98882.84;5012105;28;8838;-58
2023/07/25 07:04:32;;;;;;;;;4.60;3.60;;;;;17.73;73.10;98894.22;5028526;28;8896;-59
2023/07/25 07:07:00;;;;;;;;;3.80;3.00;;;;;17.72;73.23;98884.47;5020324;28;8895;-59
2023/07/25 07:09:28;;;;;;;;;4.00;3.40;;;;;17.79;72.91;98889.91;5013947;28;8818;-58
2023/07/25 07:11:56;;;;;;;;;6.00;4.00;;;;;17.82;72.82;98887.66;5011646;28;8956;-59
2023/07/25 07:14:26;;;;;;;;;4.00;3.00;;;;;17.92;72.87;98882.75;5026535;28;8816;-59
2023/07/25 07:16:54;;;;;;;;;4.00;4.00;;;;;18.07;72.94;98877.31;5023354;28;8824;-59
2023/07/25 07:19:23;;;;;;;;;3.20;3.00;;;;;18.23;71.60;98877.81;5032645;28;8860;-59
2023/07/25 07:21:51;;;;;;;;;3.00;1.80;;;;;18.30;71.86;98886.81;5032613;28;8836;-61
2023/07/25 07:24:18;;;;;;;;;3.20;3.00;;;;;18.40;71.44;98890.03;5031998;28;8955;-59
2023/07/25 07:26:46;;;;;;;;;3.20;3.00;;;;;18.43;71.53;98880.72;5032721;28;8840;-60
2023/07/25 07:29:14;;;;;;;;;4.00;4.00;;;;;18.42;71.60;98882.56;5032403;28;8916;-59
2023/07/25 07:31:42;;;;;;;;;3.00;3.00;;;;;18.45;71.22;98882.16;5032496;28;8860;-61
2023/07/25 07:34:09;;;;;;;;;1.40;1.40;;;;;18.55;71.65;98887.22;5032153;28;8934;-61
2023/07/25 07:36:37;;;;;;;;;4.40;4.00;;;;;18.65;71.16;98891.22;5032229;28;8852;-61
2023/07/25 07:39:05;;;;;;;;;3.00;3.00;;;;;18.70;71.04;98891.47;5031964;28;8831;-59
2023/07/25 07:41:33;;;;;;;;;1.00;1.00;;;;;18.65;70.64;98888.53;5031894;28;9567;-59
2023/07/25 07:44:01;;;;;;;;;3.00;1.80;;;;;18.64;71.20;98886.84;5032313;28;8986;-59
2023/07/25 07:46:29;;;;;;;;;2.20;2.20;;;;;18.68;71.55;98879.19;5031766;28;9548;-59
2023/07/25 07:48:57;;;;;;;;;1.80;1.80;;;;;18.75;70.77;98877.38;5030615;28;8909;-59
2023/07/25 07:51:24;;;;;;;;;3.60;3.00;;;;;18.80;70.43;98885.69;5031928;28;8858;-59
2023/07/25 07:53:52;;;;;;;;;2.20;2.20;;;;;18.87;70.44;98883.84;5022377;28;8864;-59
2023/07/25 07:56:20;;;;;;;;;1.00;1.00;;;;;18.98;70.41;98880.59;5011765;28;8814;-60
2023/07/25 07:58:48;;;;;;;;;4.80;3.00;;;;;19.08;69.94;98884.59;5012104;28;8918;-58
2023/07/25 08:01:16;;;;;;;;;3.80;3.60;;;;;19.18;70.05;98881.53;5011489;28;8814;-59
2023/07/25 08:03:44;;;;;;;;;3.00;3.00;;;;;19.25;69.66;98885.94;5011493;28;8961;-59
2023/07/25 08:06:12;;;;;;;;;1.00;1.00;;;;;19.31;69.34;98884.28;5011373;28;8919;-59
2023/07/25 08:08:42;;;;;;;;;0.80;0.80;;;;;19.36;69.25;98888.03;5012715;28;8830;-59
2023/07/25 08:11:10;;;;;;;;;2.80;2.80;;;;;19.44;69.26;98887.03;5011086;28;8850;-60
2023/07/25 08:13:38;;;;;;;;;1.00;1.00;;;;;19.45;69.19;98894.94;5021594;28;8824;-59
2023/07/25 08:16:06;;;;;;;;;0.60;0.00;;;;;19.49;68.60;98884.56;5030836;28;8831;-60
2023/07/25 08:18:34;;;;;;;;;0.20;0.00;;;;;19.52;68.91;98887.69;5028931;28;8905;-59
2023/07/25 08:21:02;;;;;;;;;3.60;3.60;;;;;19.56;69.02;98888.91;5030946;28;8993;-61
2023/07/25 08:23:29;;;;;;;;;3.60;3.60;;;;;19.61;69.07;98896.41;5023006;28;8856;-60
2023/07/25 08:25:57;;;;;;;;;1.20;1.00;;;;;19.66;68.56;98894.75;5015124;28;8938;-59
2023/07/25 08:28:25;;;;;;;;;2.40;2.40;;;;;19.70;68.74;98896.00;5019730;28;8816;-59
2023/07/25 08:30:53;;;;;;;;;1.80;1.80;;;;;19.74;68.40;98899.97;5017890;28;8826;-59
2023/07/25 08:33:22;;;;;;;;;2.00;2.00;;;;;19.75;68.22;98898.94;5014156;28;8944;-59
2023/07/25 08:35:51;;;;;;;;;2.40;1.60;;;;;19.75;68.22;98898.94;5014736;28;8832;-59
2023/07/25 08:38:19;;;;;;;;;1.00;1.00;;;;;19.76;68.55;98895.19;5019089;28;8843;-59
2023/07/25 08:40:47;;;;;;;;;2.20;2.20;;;;;19.81;68.02;98894.56;5034000;28;8843;-59
2023/07/25 08:43:15;;;;;;;;;2.20;2.20;;;;;19.84;67.92;98900.41;5033694;28;8928;-59
2023/07/25 08:45:43;;;;;;;;;3.40;1.80;;;;;19.84;68.13;98895.00;5033117;28;8859;-60
2023/07/25 08:48:11;;;;;;;;;2.20;1.60;;;;;19.82;68.46;98896.25;5023643;28;8842;-62
2023/07/25 08:50:39;;;;;;;;;2.80;2.40;;;;;19.81;68.03;98899.97;5014212;28;8930;-60
2023/07/25 08:53:07;;;;;;;;;2.20;2.20;;;;;19.79;68.00;98897.47;5029186;28;8831;-60
2023/07/25 08:55:34;;;;;;;;;2.20;2.20;;;;;19.78;68.41;98898.53;5014283;28;8872;-59
2023/07/25 08:58:02;;;;;;;;;1.00;1.00;;;;;19.78;68.15;98901.22;5013260;28;8850;-60
2023/07/25 09:00:33;;;;;;;;;2.20;1.00;;;;;19.80;68.00;98892.91;5013889;28;8834;-60
2023/07/25 09:03:00;;;;;;;;;2.20;2.20;;;;;19.85;68.15;98890.41;5030406;28;8836;-60
2023/07/25 09:05:28;;;;;;;;;2.20;2.20;;;;;19.88;67.69;98898.13;5016416;28;8842;-60
2023/07/25 09:07:59;;;;;;;;;2.20;2.20;;;;;19.86;67.74;98892.91;5015558;28;8862;-61
2023/07/25 09:10:27;;;;;;;;;1.00;1.00;;;;;19.85;68.18;98902.06;5013485;28;8818;-62
2023/07/25 09:12:55;;;;;;;;;3.60;2.80;;;;;19.88;67.92;98906.22;5013212;28;8833;-59
2023/07/25 09:15:23;;;;;;;;;2.20;2.20;;;;;19.88;67.89;98888.13;5012932;28;8862;-60
2023/07/25 09:17:50;;;;;;;;;2.20;2.20;;;;;19.95;67.84;98905.19;5017308;28;8988;-60
2023/07/25 09:20:18;;;;;;;;;1.20;1.00;;;;;20.04;67.21;98900.41;5032923;28;8824;-61
2023/07/25 09:22:46;;;;;;;;;2.80;2.20;;;;;20.09;67.14;98906.09;5033422;28;8844;-61
2023/07/25 09:25:14;;;;;;;;;3.60;3.60;;;;;20.14;67.54;98909.81;5033063;28;8828;-61
2023/07/25 09:27:42;;;;;;;;;4.20;4.00;;;;;20.15;66.89;98908.78;5033562;28;8834;-61
2023/07/25 09:30:10;;;;;;;;;4.40;3.60;;;;;20.17;67.07;98909.38;5033375;28;8832;-60
2023/07/25 09:32:38;;;;;;;;;2.00;2.00;;;;;20.24;66.84;98909.41;5033990;28;8828;-60
2023/07/25 09:35:06;;;;;;;;;3.60;3.60;;;;;20.24;66.61;98907.50;5032759;28;8844;-60
2023/07/25 09:37:34;;;;;;;;;3.80;3.60;;;;;20.27;66.77;98907.13;5014460;28;8936;-60
2023/07/25 09:40:02;;;;;;;;;2.00;2.00;;;;;20.33;66.68;98898.16;5014220;28;8931;-60
2023/07/25 09:42:30;;;;;;;;;4.00;1.20;;;;;20.45;66.49;98904.59;5014540;28;8838;-59
2023/07/25 09:44:58;;;;;;;;;2.00;2.00;;;;;20.54;66.13;98903.34;5014368;28;8830;-60
2023/07/25 09:47:26;;;;;;;;;4.00;3.20;;;;;20.56;65.85;98903.94;5014083;28;8830;-60
2023/07/25 09:49:54;;;;;;;;;5.00;4.80;;;;;20.59;66.01;98906.25;5013381;28;8826;-59
2023/07/25 09:52:22;;;;;;;;;4.20;4.20;;;;;20.57;65.59;98900.22;5031880;28;8846;-60
2023/07/25 09:54:50;;;;;;;;;4.00;4.00;;;;;20.63;65.66;98907.47;5021156;28;8848;-60
2023/07/25 09:57:18;;;;;;;;;5.00;5.00;;;;;20.83;64.83;98910.97;5013823;28;8806;-59
2023/07/25 09:59:47;;;;;;;;;5.00;4.80;;;;;21.08;64.52;98904.69;5013841;28;8833;-60
2023/07/25 10:02:15;;;;;;;;;5.80;5.80;;;;;21.30;63.66;98902.50;5013143;28;8846;-59
2023/07/25 10:04:43;;;;;;;;;7.40;6.60;;;;;21.44;63.56;98909.53;5020086;28;8816;-60
2023/07/25 10:07:11;;;;;;;;;7.20;7.20;;;;;21.49;63.45;98901.59;5032696;28;8852;-61
2023/07/25 10:09:40;;;;;;;;;5.40;5.00;;;;;21.55;63.16;98895.31;5030822;28;8820;-60
2023/07/25 10:12:08;;;;;;;;;4.00;4.00;;;;;21.46;63.37;98891.16;5032271;28;8824;-60
2023/07/25 10:14:37;;;;;;;;;3.60;3.20;;;;;21.33;63.87;98896.66;5026607;28;8838;-60
2023/07/25 10:17:05;;;;;;;;;6.60;5.00;;;;;21.17;63.80;98897.13;5012271;28;8926;-59
2023/07/25 10:19:33;;;;;;;;;5.00;5.00;;;;;20.94;64.68;98903.06;5024130;28;8823;-59
2023/07/25 10:22:01;;;;;;;;;4.60;3.60;;;;;20.62;65.53;98900.41;5014729;28;9614;-60
2023/07/25 10:24:29;;;;;;;;;2.00;2.00;;;;;20.38;65.60;98901.06;5015321;28;8824;-60
2023/07/25 10:26:57;;;;;;;;;2.00;2.00;;;;;20.21;65.93;98901.69;5024270;28;8952;-60
2023/07/25 10:29:25;;;;;;;;;4.00;4.00;;;;;20.07;65.72;98892.75;5020032;28;8828;-60
2023/07/25 10:31:53;;;;;;;;;2.40;2.40;;;;;20.01;66.31;98903.56;5032077;28;9638;-60
2023/07/25 10:34:21;;;;;;;;;4.20;4.00;;;;;19.94;66.54;98892.72;5029654;28;8846;-60
2023/07/25 10:36:49;;;;;;;;;2.40;2.40;;;;;19.93;66.06;98895.59;5013905;28;8976;-60
2023/07/25 10:39:17;;;;;;;;;1.00;1.00;;;;;19.94;65.96;98889.19;5013742;28;8814;-60
2023/07/25 10:41:50;;;;;;;;;2.40;1.80;;;;;20.00;65.96;98897.28;5021384;28;8819;-59
2023/07/25 10:44:19;;;;;;;;;3.20;2.40;;;;;20.14;65.75;98893.59;5014807;28;8988;-60
2023/07/25 10:46:46;;;;;;;;;4.00;4.00;;;;;20.48;64.50;98892.53;5012058;28;8975;-60
2023/07/25 10:49:15;;;;;;;;;2.00;2.00;;;;;20.87;63.58;98890.59;5011385;28;8993;-60
2023/07/25 10:51:43;;;;;;;;;2.80;2.00;;;;;21.12;63.46;98888.84;5015990;28;8832;-62
2023/07/25 10:54:12;;;;;;;;;7.00;5.00;;;;;21.25;62.83;98895.03;5014499;28;8957;-59
2023/07/25 10:56:40;;;;;;;;;4.00;2.00;;;;;21.44;62.76;98885.97;5027217;28;8841;-60
2023/07/25 10:59:08;;;;;;;;;2.60;1.80;;;;;21.59;62.45;98878.38;5030860;28;8812;-60
2023/07/25 11:01:37;;;;;;;;;2.40;2.40;;;;;21.62;62.42;98879.81;5030027;28;8848;-60
2023/07/25 11:04:05;;;;;;;;;2.00;1.00;;;;;21.55;62.67;98873.63;5031052;28;8851;-59
2023/07/25 11:06:33;;;;;;;;;2.00;2.00;;;;;21.54;62.63;98882.78;5028368;28;8934;-59
2023/07/25 11:09:00;;;;;;;;;2.00;2.00;;;;;21.89;61.98;98875.91;5031318;28;8840;-60
2023/07/25 11:11:28;;;;;;;;;2.00;2.00;;;;;22.03;61.35;98875.59;5031047;28;8892;-60
2023/07/25 11:13:57;;;;;;;;;1.40;1.40;;;;;22.13;61.12;98877.81;5030438;28;8804;-60
2023/07/25 11:16:27;;;;;;;;;2.40;2.00;;;;;22.58;60.08;98879.31;5022282;28;8826;-60
2023/07/25 11:18:55;;;;;;;;;2.00;2.00;;;;;23.16;58.95;98884.09;5026667;28;8840;-60
2023/07/25 11:21:25;;;;;;;;;1.00;1.00;;;;;23.39;58.65;98875.25;5031198;28;8824;-60
2023/07/25 11:23:53;;;;;;;;;2.00;2.00;;;;;23.21;59.34;98873.38;5031296;28;8868;-61
2023/07/25 11:26:21;;;;;;;;;1.00;1.00;;;;;22.79;60.06;98884.31;5030864;28;8815;-61
2023/07/25 11:28:49;;;;;;;;;2.40;2.00;;;;;22.32;61.06;98884.97;5031233;28;8904;-60
2023/07/25 11:31:17;;;;;;;;;1.00;1.00;;;;;21.86;62.23;98887.22;5031134;28;8851;-60
2023/07/25 11:33:45;;;;;;;;;2.00;1.40;;;;;21.50;63.00;98892.41;5030582;28;8836;-60
2023/07/25 11:36:13;;;;;;;;;2.00;2.00;;;;;21.20;63.73;98897.53;5030046;28;8864;-60
2023/07/25 11:38:41;;;;;;;;;2.00;2.00;;;;;20.92;64.06;98895.38;5030849;28;8828;-59
2023/07/25 11:41:09;;;;;;;;;1.80;1.80;;;;;20.64;64.64;98901.00;5031773;28;9740;-59
2023/07/25 11:43:37;;;;;;;;;4.00;3.60;;;;;20.40;65.10;98906.28;5032146;28;8844;-60
2023/07/25 11:46:05;;;;;;;;;3.60;2.00;;;;;20.19;65.44;98912.72;5031890;28;9717;-59